Herbert J Plaisance — WDE6917 — position and weather

sailwx.info

Track history (hours):
 
Tides and Currents Weather Stations Pressure Air Temp Water Temp Dewpoint Dewpoint Depression Visibility Wind Speed Wind Dir Waves Ship Positions

Herbert J Plaisance

Owner: S & B Marine LLC, Harvey, LA. More information available from US FCC via Universal Licensing System and Coast Guard Vessel Documentation Center.

Last reported at 2017-Apr-23 05:54 UTC. Time now 2017-Apr-28 23:45 UTC.
Position N 29°32' W 090°52'.

Length 20 m; draft 3 m.

Type: Towing. MMSI: 367386576.

Date/timePositionNaut miles runAvg speedWind from/ knotsBaromVisibWave heightAir tempDewpointWater temp
2017-Apr-23 05:54N 29°32' W 090°52'2 4.7
2017-Apr-23 05:30N 29°32' W 090°50'2 4.6
2017-Apr-23 05:00N 29°32' W 090°47'2 4.2
2017-Apr-23 04:30N 29°34' W 090°45'2 3.8
2017-Apr-23 04:00N 29°34' W 090°43'3 5.2
2017-Apr-23 03:30N 29°31' W 090°42'3 5.3
2017-Apr-23 03:00N 29°29' W 090°43'3 5.1
2017-Apr-23 02:30N 29°26' W 090°43'0 0.8
2017-Apr-23 02:00N 29°26' W 090°43'3 5.5
2017-Apr-23 01:30N 29°29' W 090°43'3 5.6
2017-Apr-23 01:00N 29°31' W 090°42'3 5.3
2017-Apr-23 00:30N 29°34' W 090°43'1 1.7
2017-Apr-23 00:00N 29°35' W 090°43'0 0.0
2017-Apr-22 23:30N 29°35' W 090°43'0 0.0
2017-Apr-22 23:00N 29°35' W 090°43'0 0.0
2017-Apr-22 22:30N 29°35' W 090°43'1 2.3
2017-Apr-22 22:00N 29°34' W 090°43'3 6.0
2017-Apr-22 21:30N 29°31' W 090°43'3 6.5
2017-Apr-22 20:58N 29°27' W 090°43'1 2.5
2017-Apr-22 20:23N 29°26' W 090°43'0 0.1
2017-Apr-22 19:58N 29°26' W 090°43'0 0.1
2017-Apr-22 19:30N 29°26' W 090°43'0 0.0
2017-Apr-22 18:59N 29°26' W 090°43'2 1.8
2017-Apr-22 17:40N 29°24' W 090°45'0 0.0
2017-Apr-22 17:16N 29°24' W 090°45'0 0.0
2017-Apr-22 17:00N 29°24' W 090°45'0 0.0
2017-Apr-22 16:30N 29°24' W 090°45'0 0.0
2017-Apr-22 15:58N 29°24' W 090°45'0 0.0
2017-Apr-22 15:03N 29°24' W 090°45'0 0.0
2017-Apr-22 14:50N 29°24' W 090°45'0 0.0
2017-Apr-22 14:22N 29°24' W 090°45'0 0.0
2017-Apr-22 13:25N 29°24' W 090°45'0 0.0
2017-Apr-22 12:56N 29°24' W 090°45'0 0.0
2017-Apr-22 12:30N 29°24' W 090°45'0 0.0
2017-Apr-22 12:00N 29°24' W 090°45'0 0.0
2017-Apr-21 23:44N 29°24' W 090°45'0 0.0
2017-Apr-21 23:30N 29°24' W 090°45'0 0.0
2017-Apr-21 22:53N 29°24' W 090°45'0 0.0
2017-Apr-21 22:28N 29°24' W 090°45'0 0.0
2017-Apr-21 22:00N 29°24' W 090°45'0 0.0
2017-Apr-21 21:30N 29°24' W 090°45'0 0.0
2017-Apr-21 21:00N 29°24' W 090°45'1 1.8
2017-Apr-21 20:26N 29°24' W 090°44'2 4.5
2017-Apr-21 20:00N 29°26' W 090°43'1 1.5
2017-Apr-21 19:30N 29°25' W 090°43'2 3.5
2017-Apr-21 19:00N 29°24' W 090°45'0 0.1
2017-Apr-21 18:08N 29°24' W 090°45'0 0.0
2017-Apr-21 18:00N 29°24' W 090°45'0 0.0
2017-Apr-21 14:17N 29°24' W 090°45'0 0.0
2017-Apr-20 22:41N 29°24' W 090°45'0 0.2
2017-Apr-20 22:30N 29°24' W 090°45'1 2.0
2017-Apr-20 21:58N 29°24' W 090°44'2 5.1
2017-Apr-20 21:30N 29°26' W 090°43'0 0.3
2017-Apr-20 21:00N 29°26' W 090°43'2 3.6
2017-Apr-20 20:23N 29°24' W 090°45'0 0.1
2017-Apr-20 19:48N 29°24' W 090°45'0 0.0
2017-Apr-20 19:11N 29°24' W 090°45'0 0.0
2017-Apr-20 19:00N 29°24' W 090°45'0 0.0
2017-Apr-20 18:29N 29°24' W 090°45'0 0.0
2017-Apr-20 17:49N 29°24' W 090°45'0 0.0
2017-Apr-20 17:30N 29°24' W 090°45'0 0.0
2017-Apr-20 16:57N 29°24' W 090°45'0 0.0
2017-Apr-20 14:46N 29°24' W 090°45'0 0.0
2017-Apr-20 13:54N 29°24' W 090°45'0 0.0
2017-Apr-20 13:30N 29°24' W 090°45'1 2.0
2017-Apr-20 12:59N 29°24' W 090°44'1 1.7
2017-Apr-20 12:29N 29°25' W 090°43'2 3.1
2017-Apr-20 12:00N 29°24' W 090°45'0 0.0
2017-Apr-20 00:07N 29°24' W 090°45'0 0.1
2017-Apr-20 00:00N 29°24' W 090°45'0 0.0
2017-Apr-19 23:29N 29°24' W 090°45'0 0.0
2017-Apr-19 22:56N 29°24' W 090°45'0 0.0
2017-Apr-19 22:30N 29°24' W 090°45'0 0.0
2017-Apr-19 21:55N 29°24' W 090°45'0 0.0
2017-Apr-19 21:28N 29°24' W 090°45'0 0.0
2017-Apr-19 21:00N 29°24' W 090°45'0 0.0
2017-Apr-19 20:26N 29°24' W 090°45'0 0.0
2017-Apr-19 20:00N 29°24' W 090°45'0 0.0
2017-Apr-19 19:27N 29°24' W 090°45'0 0.1
2017-Apr-19 18:10N 29°24' W 090°45'0 0.2
2017-Apr-19 18:01N 29°24' W 090°45'1 1.4
2017-Apr-19 17:24N 29°24' W 090°44'2 5.1
2017-Apr-19 17:00N 29°26' W 090°43'0 0.1
2017-Apr-19 16:31N 29°26' W 090°43'0 0.0
2017-Apr-19 16:01N 29°26' W 090°43'0 0.0
2017-Apr-19 15:31N 29°26' W 090°43'0 0.0
2017-Apr-19 15:00N 29°26' W 090°43'0 0.0
2017-Apr-19 14:31N 29°26' W 090°43'0 0.0
2017-Apr-19 13:30N 29°26' W 090°43'0 0.0
2017-Apr-19 13:01N 29°26' W 090°43'0 0.0
2017-Apr-19 12:30N 29°26' W 090°43'0 0.0
2017-Apr-19 12:00N 29°26' W 090°43'0 0.0
2017-Apr-19 11:30N 29°26' W 090°43'0 0.0
2017-Apr-19 11:01N 29°26' W 090°43'0 0.0
2017-Apr-19 10:31N 29°26' W 090°43'0 0.0
2017-Apr-19 10:00N 29°26' W 090°43'0 0.0
2017-Apr-19 09:30N 29°26' W 090°43'0 0.0
2017-Apr-19 09:00N 29°26' W 090°43'0 0.0
2017-Apr-19 08:30N 29°26' W 090°43'0 0.0
2017-Apr-19 08:00N 29°26' W 090°43'0 0.0
2017-Apr-19 07:31N 29°26' W 090°43'0 0.0
2017-Apr-19 07:00N 29°26' W 090°43'0 0.0
2017-Apr-19 06:31N 29°26' W 090°43'0 0.0
2017-Apr-19 06:00N 29°26' W 090°43'0 0.0
2017-Apr-19 05:31N 29°26' W 090°43'0 0.0
2017-Apr-19 05:01N 29°26' W 090°43'0 0.0
2017-Apr-19 04:30N 29°26' W 090°43'0 0.0
2017-Apr-19 04:00N 29°26' W 090°43'0 0.0
2017-Apr-19 03:31N 29°26' W 090°43'0 0.0
2017-Apr-19 03:01N 29°26' W 090°43'0 0.0
2017-Apr-19 02:31N 29°26' W 090°43'0 0.0
2017-Apr-19 02:00N 29°26' W 090°43'0 0.0
2017-Apr-19 01:31N 29°26' W 090°43'1 1.2
2017-Apr-19 01:00N 29°25' W 090°43'2 3.2
2017-Apr-19 00:27N 29°24' W 090°45'0 0.2
2017-Apr-18 23:47N 29°24' W 090°45'0 0.1
2017-Apr-18 23:30N 29°24' W 090°45'1 1.9
2017-Apr-18 23:00N 29°24' W 090°44'2 3.7
2017-Apr-18 22:30N 29°26' W 090°43'0 0.1
2017-Apr-18 22:00N 29°26' W 090°43'0 0.0
2017-Apr-18 21:31N 29°26' W 090°43'0 0.0
2017-Apr-18 21:01N 29°26' W 090°43'0 0.0
2017-Apr-18 20:30N 29°26' W 090°43'0 0.0
2017-Apr-18 20:00N 29°26' W 090°43'0 0.1
2017-Apr-18 19:30N 29°26' W 090°43'2 3.7
2017-Apr-18 18:53N 29°24' W 090°45'0 0.0
2017-Apr-18 18:07N 29°24' W 090°45'0 0.0
2017-Apr-18 18:00N 29°24' W 090°45'1 0.5
2017-Apr-18 16:29N 29°24' W 090°44'1 1.8
2017-Apr-18 16:00N 29°24' W 090°44'1 2.7
2017-Apr-18 15:30N 29°26' W 090°43'0 0.5
2017-Apr-18 15:01N 29°26' W 090°43'0 0.0
2017-Apr-18 14:00N 29°26' W 090°43'0 0.0
2017-Apr-18 13:30N 29°26' W 090°43'0 0.0
2017-Apr-18 13:00N 29°26' W 090°43'0 0.0
2017-Apr-18 12:31N 29°26' W 090°43'0 0.0
2017-Apr-18 12:01N 29°26' W 090°43'0 0.0
2017-Apr-18 11:30N 29°26' W 090°43'0 0.0
2017-Apr-18 11:01N 29°26' W 090°43'0 0.0
2017-Apr-18 10:31N 29°26' W 090°43'0 0.0
2017-Apr-18 10:00N 29°26' W 090°43'0 0.0
2017-Apr-18 09:31N 29°26' W 090°43'0 0.0
2017-Apr-18 09:00N 29°26' W 090°43'0 0.0
2017-Apr-18 08:30N 29°26' W 090°43'0 0.0
2017-Apr-18 08:00N 29°26' W 090°43'0 0.0
2017-Apr-18 07:31N 29°26' W 090°43'0 0.0
2017-Apr-18 07:00N 29°26' W 090°43'0 0.2
2017-Apr-18 06:30N 29°26' W 090°43'2 3.9
2017-Apr-18 06:00N 29°28' W 090°43'3 5.3
2017-Apr-18 05:31N 29°30' W 090°43'3 5.4
2017-Apr-18 05:00N 29°33' W 090°42'1 2.7
2017-Apr-18 04:30N 29°34' W 090°43'2 3.7
2017-Apr-18 04:00N 29°33' W 090°45'3 5.5
2017-Apr-18 03:31N 29°32' W 090°48'4 6.8
2017-Apr-18 02:57N 29°32' W 090°52'55 1.2
2017-Apr-16 06:19N 29°51' W 091°51'1 4.0
2017-Apr-16 06:00N 29°51' W 091°53'3 6.9
2017-Apr-16 05:31N 29°51' W 091°57'3 6.6
2017-Apr-16 05:01N 29°50' W 092°00'3 6.4
2017-Apr-16 04:31N 29°49' W 092°04'3 5.3
2017-Apr-16 04:00N 29°48' W 092°07'3 6.1
2017-Apr-16 03:30N 29°47' W 092°10'2 4.4
2017-Apr-16 03:01N 29°47' W 092°12'1 2.0
2017-Apr-16 02:30N 29°48' W 092°14'0 0.0
2017-Apr-16 02:01N 29°48' W 092°14'0 0.0
2017-Apr-16 01:30N 29°48' W 092°14'0 0.0
2017-Apr-16 01:01N 29°48' W 092°14'0 0.0
2017-Apr-16 00:30N 29°48' W 092°14'0 0.8
2017-Apr-16 00:01N 29°48' W 092°14'3 6.2
2017-Apr-15 23:31N 29°49' W 092°17'3 5.6
2017-Apr-15 23:00N 29°51' W 092°20'2 4.5
2017-Apr-15 22:30N 29°52' W 092°22'3 4.6
2017-Apr-15 21:56N 29°53' W 092°25'0 0.1
2017-Apr-15 21:22N 29°53' W 092°25'1 2.2
2017-Apr-15 21:01N 29°53' W 092°24'2 3.3
2017-Apr-15 20:30N 29°52' W 092°22'1 2.9
2017-Apr-15 20:00N 29°51' W 092°21'1 2.8
2017-Apr-15 19:30N 29°51' W 092°20'2 3.0
2017-Apr-15 19:01N 29°50' W 092°18'2 3.3
2017-Apr-15 18:30N 29°49' W 092°17'2 3.0
2017-Apr-15 18:00N 29°48' W 092°15'2 3.5
2017-Apr-15 17:30N 29°48' W 092°13'1 2.2
2017-Apr-15 17:00N 29°47' W 092°12'1 1.9
2017-Apr-15 16:31N 29°47' W 092°11'0 0.1
2017-Apr-15 16:00N 29°47' W 092°11'0 0.1
2017-Apr-15 15:30N 29°47' W 092°11'0 1.0
2017-Apr-15 15:00N 29°47' W 092°11'0 0.2
2017-Apr-15 14:00N 29°47' W 092°11'1 1.4
2017-Apr-15 13:29N 29°47' W 092°10'2 3.3
2017-Apr-15 13:00N 29°47' W 092°08'2 3.1
2017-Apr-15 12:30N 29°48' W 092°06'2 3.3
2017-Apr-15 12:00N 29°48' W 092°05'2 3.4
2017-Apr-15 11:30N 29°49' W 092°03'2 3.3
2017-Apr-15 11:00N 29°49' W 092°01'1 2.6
2017-Apr-15 10:30N 29°50' W 091°59'2 3.7
2017-Apr-15 10:00N 29°50' W 091°57'2 3.6
2017-Apr-15 09:30N 29°51' W 091°55'1 2.4
2017-Apr-15 09:00N 29°51' W 091°54'0 0.0
2017-Apr-15 08:30N 29°51' W 091°54'0 0.0
2017-Apr-15 07:59N 29°51' W 091°54'1 0.9
2017-Apr-15 07:26N 29°51' W 091°53'9 0.7
2017-Apr-14 18:46N 29°46' W 091°44'8 3.4
2017-Apr-14 16:34N 29°51' W 091°51'0 5.7
2017-Apr-14 16:30N 29°51' W 091°52'3 5.3
2017-Apr-14 16:00N 29°51' W 091°55'2 5.0
2017-Apr-14 15:30N 29°50' W 091°57'3 5.3
2017-Apr-14 15:00N 29°50' W 092°00'3 5.6
2017-Apr-14 14:30N 29°49' W 092°03'4 4.5
2017-Apr-14 13:30N 29°48' W 092°08'1 2.5
2017-Apr-14 13:00N 29°49' W 092°08'0 0.3
2017-Apr-14 12:30N 29°49' W 092°08'0 0.0
2017-Apr-14 12:00N 29°49' W 092°08'0 0.0
2017-Apr-14 11:30N 29°49' W 092°08'0 0.0
2017-Apr-14 11:00N 29°49' W 092°08'0 0.0
2017-Apr-14 10:30N 29°49' W 092°08'0 0.0
2017-Apr-14 10:00N 29°49' W 092°08'0 0.0
2017-Apr-14 09:30N 29°49' W 092°08'0 0.0
2017-Apr-14 09:00N 29°49' W 092°08'0 0.0
2017-Apr-14 08:30N 29°49' W 092°08'0 0.2
2017-Apr-14 08:00N 29°49' W 092°08'0 0.0
2017-Apr-14 07:30N 29°49' W 092°08'0 0.0
2017-Apr-14 07:00N 29°49' W 092°08'0 0.2
2017-Apr-14 06:30N 29°49' W 092°08'2 3.9
2017-Apr-14 06:00N 29°51' W 092°08'2 3.3
2017-Apr-14 05:30N 29°53' W 092°08'2 2.7
2017-Apr-14 04:56N 29°54' W 092°07'1 2.2
2017-Apr-14 04:30N 29°55' W 092°08'1 2.6
2017-Apr-14 03:59N 29°55' W 092°09'1 1.9
2017-Apr-14 03:30N 29°56' W 092°09'2 3.6
2017-Apr-14 03:00N 29°55' W 092°08'2 3.4
2017-Apr-14 02:28N 29°53' W 092°07'2 3.3
2017-Apr-14 02:00N 29°52' W 092°08'2 4.0
2017-Apr-14 01:30N 29°50' W 092°08'1 2.0
2017-Apr-14 01:00N 29°49' W 092°08'0 0.0
2017-Apr-14 00:30N 29°49' W 092°08'2 3.8
2017-Apr-14 00:00N 29°51' W 092°08'2 3.5
2017-Apr-13 23:30N 29°52' W 092°08'1 2.9
2017-Apr-13 23:00N 29°54' W 092°07'1 2.8
2017-Apr-13 22:29N 29°55' W 092°08'1 2.4
2017-Apr-13 22:00N 29°56' W 092°09'0 0.4
2017-Apr-13 21:30N 29°56' W 092°09'2 3.5
2017-Apr-13 21:00N 29°55' W 092°07'1 2.5
2017-Apr-13 20:30N 29°53' W 092°07'2 3.4
2017-Apr-13 20:00N 29°52' W 092°08'2 4.0
2017-Apr-13 19:30N 29°50' W 092°08'2 3.1
2017-Apr-13 19:00N 29°48' W 092°08'1 1.6
2017-Apr-13 18:30N 29°49' W 092°08'2 3.4
2017-Apr-13 18:00N 29°51' W 092°08'2 3.8
2017-Apr-13 17:30N 29°53' W 092°08'2 3.1
2017-Apr-13 16:59N 29°54' W 092°07'1 2.5
2017-Apr-13 16:28N 29°55' W 092°08'1 2.7
2017-Apr-13 16:00N 29°56' W 092°09'2 3.1
2017-Apr-13 15:27N 29°57' W 092°10'  
Track history (hours):
 
Tides and Currents Weather Stations Pressure Air Temp Water Temp Dewpoint Dewpoint Depression Visibility Wind Speed Wind Dir Waves Ship Positions

Herbert J Plaisance

Owner: S & B Marine LLC, Harvey, LA. More information available from US FCC via Universal Licensing System and Coast Guard Vessel Documentation Center.

Last reported at 2017-Apr-23 05:54 UTC. Time now 2017-Apr-28 23:45 UTC.
Position N 29°32' W 090°52'.

Length 20 m; draft 3 m.

Type: Towing. MMSI: 367386576.

Date/timePositionNaut miles runAvg speedWind from/ knotsBaromVisibWave heightAir tempDewpointWater temp
2017-Apr-23 05:54N 29°32' W 090°52'2 4.7
2017-Apr-23 05:30N 29°32' W 090°50'2 4.6
2017-Apr-23 05:00N 29°32' W 090°47'2 4.2
2017-Apr-23 04:30N 29°34' W 090°45'2 3.8
2017-Apr-23 04:00N 29°34' W 090°43'3 5.2
2017-Apr-23 03:30N 29°31' W 090°42'3 5.3
2017-Apr-23 03:00N 29°29' W 090°43'3 5.1
2017-Apr-23 02:30N 29°26' W 090°43'0 0.8
2017-Apr-23 02:00N 29°26' W 090°43'3 5.5
2017-Apr-23 01:30N 29°29' W 090°43'3 5.6
2017-Apr-23 01:00N 29°31' W 090°42'3 5.3
2017-Apr-23 00:30N 29°34' W 090°43'1 1.7
2017-Apr-23 00:00N 29°35' W 090°43'0 0.0
2017-Apr-22 23:30N 29°35' W 090°43'0 0.0
2017-Apr-22 23:00N 29°35' W 090°43'0 0.0
2017-Apr-22 22:30N 29°35' W 090°43'1 2.3
2017-Apr-22 22:00N 29°34' W 090°43'3 6.0
2017-Apr-22 21:30N 29°31' W 090°43'3 6.5
2017-Apr-22 20:58N 29°27' W 090°43'1 2.5
2017-Apr-22 20:23N 29°26' W 090°43'0 0.1
2017-Apr-22 19:58N 29°26' W 090°43'0 0.1
2017-Apr-22 19:30N 29°26' W 090°43'0 0.0
2017-Apr-22 18:59N 29°26' W 090°43'2 1.8
2017-Apr-22 17:40N 29°24' W 090°45'0 0.0
2017-Apr-22 17:16N 29°24' W 090°45'0 0.0
2017-Apr-22 17:00N 29°24' W 090°45'0 0.0
2017-Apr-22 16:30N 29°24' W 090°45'0 0.0
2017-Apr-22 15:58N 29°24' W 090°45'0 0.0
2017-Apr-22 15:03N 29°24' W 090°45'0 0.0
2017-Apr-22 14:50N 29°24' W 090°45'0 0.0
2017-Apr-22 14:22N 29°24' W 090°45'0 0.0
2017-Apr-22 13:25N 29°24' W 090°45'0 0.0
2017-Apr-22 12:56N 29°24' W 090°45'0 0.0
2017-Apr-22 12:30N 29°24' W 090°45'0 0.0
2017-Apr-22 12:00N 29°24' W 090°45'0 0.0
2017-Apr-21 23:44N 29°24' W 090°45'0 0.0
2017-Apr-21 23:30N 29°24' W 090°45'0 0.0
2017-Apr-21 22:53N 29°24' W 090°45'0 0.0
2017-Apr-21 22:28N 29°24' W 090°45'0 0.0
2017-Apr-21 22:00N 29°24' W 090°45'0 0.0
2017-Apr-21 21:30N 29°24' W 090°45'0 0.0
2017-Apr-21 21:00N 29°24' W 090°45'1 1.8
2017-Apr-21 20:26N 29°24' W 090°44'2 4.5
2017-Apr-21 20:00N 29°26' W 090°43'1 1.5
2017-Apr-21 19:30N 29°25' W 090°43'2 3.5
2017-Apr-21 19:00N 29°24' W 090°45'0 0.1
2017-Apr-21 18:08N 29°24' W 090°45'0 0.0
2017-Apr-21 18:00N 29°24' W 090°45'0 0.0
2017-Apr-21 14:17N 29°24' W 090°45'0 0.0
2017-Apr-20 22:41N 29°24' W 090°45'0 0.2
2017-Apr-20 22:30N 29°24' W 090°45'1 2.0
2017-Apr-20 21:58N 29°24' W 090°44'2 5.1
2017-Apr-20 21:30N 29°26' W 090°43'0 0.3
2017-Apr-20 21:00N 29°26' W 090°43'2 3.6
2017-Apr-20 20:23N 29°24' W 090°45'0 0.1
2017-Apr-20 19:48N 29°24' W 090°45'0 0.0
2017-Apr-20 19:11N 29°24' W 090°45'0 0.0
2017-Apr-20 19:00N 29°24' W 090°45'0 0.0
2017-Apr-20 18:29N 29°24' W 090°45'0 0.0
2017-Apr-20 17:49N 29°24' W 090°45'0 0.0
2017-Apr-20 17:30N 29°24' W 090°45'0 0.0
2017-Apr-20 16:57N 29°24' W 090°45'0 0.0
2017-Apr-20 14:46N 29°24' W 090°45'0 0.0
2017-Apr-20 13:54N 29°24' W 090°45'0 0.0
2017-Apr-20 13:30N 29°24' W 090°45'1 2.0
2017-Apr-20 12:59N 29°24' W 090°44'1 1.7
2017-Apr-20 12:29N 29°25' W 090°43'2 3.1
2017-Apr-20 12:00N 29°24' W 090°45'0 0.0
2017-Apr-20 00:07N 29°24' W 090°45'0 0.1
2017-Apr-20 00:00N 29°24' W 090°45'0 0.0
2017-Apr-19 23:29N 29°24' W 090°45'0 0.0
2017-Apr-19 22:56N 29°24' W 090°45'0 0.0
2017-Apr-19 22:30N 29°24' W 090°45'0 0.0
2017-Apr-19 21:55N 29°24' W 090°45'0 0.0
2017-Apr-19 21:28N 29°24' W 090°45'0 0.0
2017-Apr-19 21:00N 29°24' W 090°45'0 0.0
2017-Apr-19 20:26N 29°24' W 090°45'0 0.0
2017-Apr-19 20:00N 29°24' W 090°45'0 0.0
2017-Apr-19 19:27N 29°24' W 090°45'0 0.1
2017-Apr-19 18:10N 29°24' W 090°45'0 0.2
2017-Apr-19 18:01N 29°24' W 090°45'1 1.4
2017-Apr-19 17:24N 29°24' W 090°44'2 5.1
2017-Apr-19 17:00N 29°26' W 090°43'0 0.1
2017-Apr-19 16:31N 29°26' W 090°43'0 0.0
2017-Apr-19 16:01N 29°26' W 090°43'0 0.0
2017-Apr-19 15:31N 29°26' W 090°43'0 0.0
2017-Apr-19 15:00N 29°26' W 090°43'0 0.0
2017-Apr-19 14:31N 29°26' W 090°43'0 0.0
2017-Apr-19 13:30N 29°26' W 090°43'0 0.0
2017-Apr-19 13:01N 29°26' W 090°43'0 0.0
2017-Apr-19 12:30N 29°26' W 090°43'0 0.0
2017-Apr-19 12:00N 29°26' W 090°43'0 0.0
2017-Apr-19 11:30N 29°26' W 090°43'0 0.0
2017-Apr-19 11:01N 29°26' W 090°43'0 0.0
2017-Apr-19 10:31N 29°26' W 090°43'0 0.0
2017-Apr-19 10:00N 29°26' W 090°43'0 0.0
2017-Apr-19 09:30N 29°26' W 090°43'0 0.0
2017-Apr-19 09:00N 29°26' W 090°43'0 0.0
2017-Apr-19 08:30N 29°26' W 090°43'0 0.0
2017-Apr-19 08:00N 29°26' W 090°43'0 0.0
2017-Apr-19 07:31N 29°26' W 090°43'0 0.0
2017-Apr-19 07:00N 29°26' W 090°43'0 0.0
2017-Apr-19 06:31N 29°26' W 090°43'0 0.0
2017-Apr-19 06:00N 29°26' W 090°43'0 0.0
2017-Apr-19 05:31N 29°26' W 090°43'0 0.0
2017-Apr-19 05:01N 29°26' W 090°43'0 0.0
2017-Apr-19 04:30N 29°26' W 090°43'0 0.0
2017-Apr-19 04:00N 29°26' W 090°43'0 0.0
2017-Apr-19 03:31N 29°26' W 090°43'0 0.0
2017-Apr-19 03:01N 29°26' W 090°43'0 0.0
2017-Apr-19 02:31N 29°26' W 090°43'0 0.0
2017-Apr-19 02:00N 29°26' W 090°43'0 0.0
2017-Apr-19 01:31N 29°26' W 090°43'1 1.2
2017-Apr-19 01:00N 29°25' W 090°43'2 3.2
2017-Apr-19 00:27N 29°24' W 090°45'0 0.2
2017-Apr-18 23:47N 29°24' W 090°45'0 0.1
2017-Apr-18 23:30N 29°24' W 090°45'1 1.9
2017-Apr-18 23:00N 29°24' W 090°44'2 3.7
2017-Apr-18 22:30N 29°26' W 090°43'0 0.1
2017-Apr-18 22:00N 29°26' W 090°43'0 0.0
2017-Apr-18 21:31N 29°26' W 090°43'0 0.0
2017-Apr-18 21:01N 29°26' W 090°43'0 0.0
2017-Apr-18 20:30N 29°26' W 090°43'0 0.0
2017-Apr-18 20:00N 29°26' W 090°43'0 0.1
2017-Apr-18 19:30N 29°26' W 090°43'2 3.7
2017-Apr-18 18:53N 29°24' W 090°45'0 0.0
2017-Apr-18 18:07N 29°24' W 090°45'0 0.0
2017-Apr-18 18:00N 29°24' W 090°45'1 0.5
2017-Apr-18 16:29N 29°24' W 090°44'1 1.8
2017-Apr-18 16:00N 29°24' W 090°44'1 2.7
2017-Apr-18 15:30N 29°26' W 090°43'0 0.5
2017-Apr-18 15:01N 29°26' W 090°43'0 0.0
2017-Apr-18 14:00N 29°26' W 090°43'0 0.0
2017-Apr-18 13:30N 29°26' W 090°43'0 0.0
2017-Apr-18 13:00N 29°26' W 090°43'0 0.0
2017-Apr-18 12:31N 29°26' W 090°43'0 0.0
2017-Apr-18 12:01N 29°26' W 090°43'0 0.0
2017-Apr-18 11:30N 29°26' W 090°43'0 0.0
2017-Apr-18 11:01N 29°26' W 090°43'0 0.0
2017-Apr-18 10:31N 29°26' W 090°43'0 0.0
2017-Apr-18 10:00N 29°26' W 090°43'0 0.0
2017-Apr-18 09:31N 29°26' W 090°43'0 0.0
2017-Apr-18 09:00N 29°26' W 090°43'0 0.0
2017-Apr-18 08:30N 29°26' W 090°43'0 0.0
2017-Apr-18 08:00N 29°26' W 090°43'0 0.0
2017-Apr-18 07:31N 29°26' W 090°43'0 0.0
2017-Apr-18 07:00N 29°26' W 090°43'0 0.2
2017-Apr-18 06:30N 29°26' W 090°43'2 3.9
2017-Apr-18 06:00N 29°28' W 090°43'3 5.3
2017-Apr-18 05:31N 29°30' W 090°43'3 5.4
2017-Apr-18 05:00N 29°33' W 090°42'1 2.7
2017-Apr-18 04:30N 29°34' W 090°43'2 3.7
2017-Apr-18 04:00N 29°33' W 090°45'3 5.5
2017-Apr-18 03:31N 29°32' W 090°48'4 6.8
2017-Apr-18 02:57N 29°32' W 090°52'55 1.2
2017-Apr-16 06:19N 29°51' W 091°51'1 4.0
2017-Apr-16 06:00N 29°51' W 091°53'3 6.9
2017-Apr-16 05:31N 29°51' W 091°57'3 6.6
2017-Apr-16 05:01N 29°50' W 092°00'3 6.4
2017-Apr-16 04:31N 29°49' W 092°04'3 5.3
2017-Apr-16 04:00N 29°48' W 092°07'3 6.1
2017-Apr-16 03:30N 29°47' W 092°10'2 4.4
2017-Apr-16 03:01N 29°47' W 092°12'1 2.0
2017-Apr-16 02:30N 29°48' W 092°14'0 0.0
2017-Apr-16 02:01N 29°48' W 092°14'0 0.0
2017-Apr-16 01:30N 29°48' W 092°14'0 0.0
2017-Apr-16 01:01N 29°48' W 092°14'0 0.0
2017-Apr-16 00:30N 29°48' W 092°14'0 0.8
2017-Apr-16 00:01N 29°48' W 092°14'3 6.2
2017-Apr-15 23:31N 29°49' W 092°17'3 5.6
2017-Apr-15 23:00N 29°51' W 092°20'2 4.5
2017-Apr-15 22:30N 29°52' W 092°22'3 4.6
2017-Apr-15 21:56N 29°53' W 092°25'0 0.1
2017-Apr-15 21:22N 29°53' W 092°25'1 2.2
2017-Apr-15 21:01N 29°53' W 092°24'2 3.3
2017-Apr-15 20:30N 29°52' W 092°22'1 2.9
2017-Apr-15 20:00N 29°51' W 092°21'1 2.8
2017-Apr-15 19:30N 29°51' W 092°20'2 3.0
2017-Apr-15 19:01N 29°50' W 092°18'2 3.3
2017-Apr-15 18:30N 29°49' W 092°17'2 3.0
2017-Apr-15 18:00N 29°48' W 092°15'2 3.5
2017-Apr-15 17:30N 29°48' W 092°13'1 2.2
2017-Apr-15 17:00N 29°47' W 092°12'1 1.9
2017-Apr-15 16:31N 29°47' W 092°11'0 0.1
2017-Apr-15 16:00N 29°47' W 092°11'0 0.1
2017-Apr-15 15:30N 29°47' W 092°11'0 1.0
2017-Apr-15 15:00N 29°47' W 092°11'0 0.2
2017-Apr-15 14:00N 29°47' W 092°11'1 1.4
2017-Apr-15 13:29N 29°47' W 092°10'2 3.3
2017-Apr-15 13:00N 29°47' W 092°08'2 3.1
2017-Apr-15 12:30N 29°48' W 092°06'2 3.3
2017-Apr-15 12:00N 29°48' W 092°05'2 3.4
2017-Apr-15 11:30N 29°49' W 092°03'2 3.3
2017-Apr-15 11:00N 29°49' W 092°01'1 2.6
2017-Apr-15 10:30N 29°50' W 091°59'2 3.7
2017-Apr-15 10:00N 29°50' W 091°57'2 3.6
2017-Apr-15 09:30N 29°51' W 091°55'1 2.4
2017-Apr-15 09:00N 29°51' W 091°54'0 0.0
2017-Apr-15 08:30N 29°51' W 091°54'0 0.0
2017-Apr-15 07:59N 29°51' W 091°54'1 0.9
2017-Apr-15 07:26N 29°51' W 091°53'9 0.7
2017-Apr-14 18:46N 29°46' W 091°44'8 3.4
2017-Apr-14 16:34N 29°51' W 091°51'0 5.7
2017-Apr-14 16:30N 29°51' W 091°52'3 5.3
2017-Apr-14 16:00N 29°51' W 091°55'2 5.0
2017-Apr-14 15:30N 29°50' W 091°57'3 5.3
2017-Apr-14 15:00N 29°50' W 092°00'3 5.6
2017-Apr-14 14:30N 29°49' W 092°03'4 4.5
2017-Apr-14 13:30N 29°48' W 092°08'1 2.5
2017-Apr-14 13:00N 29°49' W 092°08'0 0.3
2017-Apr-14 12:30N 29°49' W 092°08'0 0.0
2017-Apr-14 12:00N 29°49' W 092°08'0 0.0
2017-Apr-14 11:30N 29°49' W 092°08'0 0.0
2017-Apr-14 11:00N 29°49' W 092°08'0 0.0
2017-Apr-14 10:30N 29°49' W 092°08'0 0.0
2017-Apr-14 10:00N 29°49' W 092°08'0 0.0
2017-Apr-14 09:30N 29°49' W 092°08'0 0.0
2017-Apr-14 09:00N 29°49' W 092°08'0 0.0
2017-Apr-14 08:30N 29°49' W 092°08'0 0.2
2017-Apr-14 08:00N 29°49' W 092°08'0 0.0
2017-Apr-14 07:30N 29°49' W 092°08'0 0.0
2017-Apr-14 07:00N 29°49' W 092°08'0 0.2
2017-Apr-14 06:30N 29°49' W 092°08'2 3.9
2017-Apr-14 06:00N 29°51' W 092°08'2 3.3
2017-Apr-14 05:30N 29°53' W 092°08'2 2.7
2017-Apr-14 04:56N 29°54' W 092°07'1 2.2
2017-Apr-14 04:30N 29°55' W 092°08'1 2.6
2017-Apr-14 03:59N 29°55' W 092°09'1 1.9
2017-Apr-14 03:30N 29°56' W 092°09'2 3.6
2017-Apr-14 03:00N 29°55' W 092°08'2 3.4
2017-Apr-14 02:28N 29°53' W 092°07'2 3.3
2017-Apr-14 02:00N 29°52' W 092°08'2 4.0
2017-Apr-14 01:30N 29°50' W 092°08'1 2.0
2017-Apr-14 01:00N 29°49' W 092°08'0 0.0
2017-Apr-14 00:30N 29°49' W 092°08'2 3.8
2017-Apr-14 00:00N 29°51' W 092°08'2 3.5
2017-Apr-13 23:30N 29°52' W 092°08'1 2.9
2017-Apr-13 23:00N 29°54' W 092°07'1 2.8
2017-Apr-13 22:29N 29°55' W 092°08'1 2.4
2017-Apr-13 22:00N 29°56' W 092°09'0 0.4
2017-Apr-13 21:30N 29°56' W 092°09'2 3.5
2017-Apr-13 21:00N 29°55' W 092°07'1 2.5
2017-Apr-13 20:30N 29°53' W 092°07'2 3.4
2017-Apr-13 20:00N 29°52' W 092°08'2 4.0
2017-Apr-13 19:30N 29°50' W 092°08'2 3.1
2017-Apr-13 19:00N 29°48' W 092°08'1 1.6
2017-Apr-13 18:30N 29°49' W 092°08'2 3.4
2017-Apr-13 18:00N 29°51' W 092°08'2 3.8
2017-Apr-13 17:30N 29°53' W 092°08'2 3.1
2017-Apr-13 16:59N 29°54' W 092°07'1 2.5
2017-Apr-13 16:28N 29°55' W 092°08'1 2.7
2017-Apr-13 16:00N 29°56' W 092°09'2 3.1
2017-Apr-13 15:27N 29°57' W 092°10'  

Dump ship's entire track history